createdAt,value
2018-05-06T00:00:11.749Z,84.87
2018-05-06T00:02:38.884Z,85.21
2018-05-06T00:05:06.144Z,85.40
2018-05-06T00:07:33.204Z,85.13
2018-05-06T00:10:00.273Z,85.24
2018-05-06T00:12:27.397Z,85.33
2018-05-06T00:14:54.487Z,85.15
2018-05-06T00:17:21.564Z,85.44
2018-05-06T00:19:48.757Z,85.27
2018-05-06T00:22:15.828Z,85.40
2018-05-06T00:24:43.030Z,86.04
2018-05-06T00:27:10.094Z,85.64
2018-05-06T00:29:37.182Z,85.66
2018-05-06T00:32:04.375Z,85.92
2018-05-06T00:34:31.725Z,86.62
2018-05-06T00:36:58.779Z,86.52
2018-05-06T00:39:25.837Z,86.74
2018-05-06T00:41:52.907Z,86.99
2018-05-06T00:44:20.135Z,87.22
2018-05-06T00:46:47.239Z,86.92
2018-05-06T00:49:14.377Z,86.33
2018-05-06T00:51:41.462Z,86.35
2018-05-06T00:54:14.397Z,86.77
2018-05-06T00:56:41.495Z,87.15
2018-05-06T00:59:08.653Z,87.35
2018-05-06T01:01:35.720Z,87.21
2018-05-06T01:04:02.810Z,87.54
2018-05-06T01:06:29.918Z,87.65
2018-05-06T01:08:56.990Z,87.81
2018-05-06T01:11:24.259Z,88.22
2018-05-06T01:13:51.344Z,88.20
2018-05-06T01:16:18.434Z,87.98
2018-05-06T01:18:45.500Z,88.18
2018-05-06T01:21:12.578Z,88.22
2018-05-06T01:23:39.700Z,87.74
2018-05-06T01:26:06.830Z,88.02
2018-05-06T01:28:33.891Z,88.18
2018-05-06T01:31:01.084Z,87.72
2018-05-06T01:33:28.314Z,87.91
2018-05-06T01:35:55.498Z,88.37
2018-05-06T01:38:22.574Z,88.57
2018-05-06T01:40:49.647Z,88.58
2018-05-06T01:43:16.969Z,88.63
2018-05-06T01:45:44.045Z,88.45
2018-05-06T01:48:11.195Z,88.27
2018-05-06T01:50:38.260Z,88.57
2018-05-06T01:53:06.105Z,89.05
2018-05-06T01:55:33.293Z,89.62
2018-05-06T01:58:00.393Z,89.12
2018-05-06T02:00:27.571Z,88.93
2018-05-06T02:02:54.576Z,89.09
2018-05-06T02:05:21.628Z,89.32
2018-05-06T02:07:48.783Z,89.53
2018-05-06T02:10:15.896Z,89.37
2018-05-06T02:12:42.963Z,89.59
2018-05-06T02:15:10.016Z,89.60
2018-05-06T02:17:37.036Z,89.63
2018-05-06T02:20:04.525Z,89.75
2018-05-06T02:22:31.785Z,89.45
2018-05-06T02:24:58.847Z,89.35
2018-05-06T02:27:26.119Z,89.48
2018-05-06T02:29:53.204Z,89.80
2018-05-06T02:32:20.296Z,89.75
2018-05-06T02:34:47.394Z,89.60
2018-05-06T02:37:14.470Z,89.42
2018-05-06T02:39:41.592Z,89.22
2018-05-06T02:42:08.670Z,89.28
2018-05-06T02:44:35.740Z,89.74
2018-05-06T02:47:02.890Z,89.87
2018-05-06T02:49:30.026Z,89.85
2018-05-06T02:51:57.366Z,90.36
2018-05-06T02:54:24.700Z,90.41
2018-05-06T02:56:52.021Z,90.37
2018-05-06T02:59:19.378Z,90.06
2018-05-06T03:01:47.190Z,89.96
2018-05-06T03:04:14.451Z,89.86
2018-05-06T03:06:41.575Z,89.71
2018-05-06T03:09:08.739Z,89.77
2018-05-06T03:11:35.951Z,89.97
2018-05-06T03:14:04.050Z,90.13
2018-05-06T03:16:31.221Z,90.22
2018-05-06T03:18:58.295Z,90.40
2018-05-06T03:21:25.314Z,90.42
2018-05-06T03:23:52.369Z,90.40
2018-05-06T03:26:19.418Z,90.39
2018-05-06T03:28:46.585Z,90.57
2018-05-06T03:31:13.640Z,90.80
2018-05-06T03:33:40.759Z,90.48
2018-05-06T03:36:07.792Z,90.52
2018-05-06T03:38:34.890Z,90.69
2018-05-06T03:41:01.938Z,90.61
2018-05-06T03:43:29.077Z,90.57
2018-05-06T03:45:56.145Z,91.25
2018-05-06T03:48:23.202Z,91.03
2018-05-06T03:50:50.290Z,91.15
2018-05-06T03:53:17.431Z,91.46
2018-05-06T03:55:44.552Z,91.39
2018-05-06T03:58:17.504Z,91.35
2018-05-06T04:00:47.521Z,91.59
2018-05-06T04:03:14.584Z,91.88
2018-05-06T04:05:41.743Z,91.47
2018-05-06T04:08:08.766Z,91.37
2018-05-06T04:10:35.884Z,91.43
2018-05-06T04:13:03.072Z,91.62
2018-05-06T04:15:30.264Z,91.37
2018-05-06T04:17:57.619Z,91.31
2018-05-06T04:20:24.666Z,91.13
2018-05-06T04:22:51.816Z,90.78
2018-05-06T04:25:18.949Z,90.27
2018-05-06T04:27:46.015Z,89.72
2018-05-06T04:30:13.114Z,89.05
2018-05-06T04:32:40.169Z,88.96
2018-05-06T04:35:07.236Z,89.15
2018-05-06T04:37:34.308Z,88.67
2018-05-06T04:40:01.502Z,88.85
2018-05-06T04:42:28.585Z,88.36
2018-05-06T04:44:55.652Z,87.53
2018-05-06T04:47:22.735Z,86.92
2018-05-06T04:49:49.976Z,86.60
2018-05-06T04:52:17.041Z,86.35
2018-05-06T04:54:44.146Z,85.21
2018-05-06T04:57:11.346Z,84.03
2018-05-06T04:59:39.105Z,82.85
2018-05-06T05:02:06.240Z,81.63
2018-05-06T05:04:33.746Z,79.69
2018-05-06T05:07:00.896Z,77.56
2018-05-06T05:09:28.116Z,75.53
2018-05-06T05:11:55.360Z,73.33
2018-05-06T05:14:22.480Z,72.37
2018-05-06T05:16:49.597Z,69.94
2018-05-06T05:19:16.763Z,69.27
2018-05-06T05:21:43.989Z,68.17
2018-05-06T05:24:11.275Z,67.53
2018-05-06T05:26:38.377Z,66.04
2018-05-06T05:29:05.615Z,65.55
2018-05-06T05:31:32.680Z,65.02
2018-05-06T05:34:00.024Z,66.95
2018-05-06T05:36:27.177Z,68.25
2018-05-06T05:38:54.267Z,69.27
2018-05-06T05:41:21.367Z,67.30
2018-05-06T05:43:48.906Z,64.53
2018-05-06T05:46:16.161Z,62.09
2018-05-06T05:48:43.226Z,60.66
2018-05-06T05:51:10.429Z,57.42
2018-05-06T05:53:37.982Z,55.66
2018-05-06T05:56:05.542Z,54.11
2018-05-06T05:58:33.141Z,53.09
2018-05-06T06:01:31.541Z,52.77
2018-05-06T06:03:59.259Z,50.78
2018-05-06T06:06:26.943Z,47.38
2018-05-06T06:08:54.533Z,46.84
2018-05-06T06:11:22.221Z,46.01
2018-05-06T06:13:49.736Z,43.98
2018-05-06T06:16:17.388Z,43.34
2018-05-06T06:18:45.361Z,42.86
2018-05-06T06:21:12.967Z,41.08
2018-05-06T06:23:40.476Z,40.54
2018-05-06T06:26:08.016Z,38.20
2018-05-06T06:28:35.578Z,36.91
2018-05-06T06:31:03.215Z,37.86
2018-05-06T06:33:31.303Z,36.88
2018-05-06T06:35:58.953Z,36.74
2018-05-06T06:38:26.521Z,35.35
2018-05-06T06:40:54.081Z,34.49
2018-05-06T06:43:21.617Z,34.77
2018-05-06T06:45:49.171Z,34.65
2018-05-06T06:48:16.694Z,34.19
2018-05-06T06:50:44.263Z,33.29
2018-05-06T06:53:11.817Z,33.51
2018-05-06T06:55:39.872Z,32.71
2018-05-06T06:58:07.359Z,31.93
2018-05-06T07:00:34.897Z,30.97
2018-05-06T07:03:03.006Z,31.32
2018-05-06T07:05:30.553Z,31.26
2018-05-06T07:07:58.145Z,30.94
2018-05-06T07:10:25.791Z,30.63
2018-05-06T07:12:53.330Z,28.91
2018-05-06T07:15:21.076Z,29.99
2018-05-06T07:17:48.610Z,29.99
2018-05-06T07:20:16.302Z,29.93
2018-05-06T07:22:43.847Z,28.76
2018-05-06T07:25:12.186Z,27.58
2018-05-06T07:27:39.828Z,28.54
2018-05-06T07:30:07.537Z,27.77
2018-05-06T07:32:35.082Z,27.44
2018-05-06T07:35:04.206Z,27.03
2018-05-06T07:37:31.892Z,27.33
2018-05-06T07:39:59.666Z,26.65
2018-05-06T07:42:27.193Z,26.27
2018-05-06T07:44:54.927Z,26.09
2018-05-06T07:47:22.476Z,26.25
2018-05-06T07:49:50.337Z,26.26
2018-05-06T07:52:17.878Z,26.09
2018-05-06T07:54:45.427Z,26.12
2018-05-06T07:57:13.147Z,25.63
2018-05-06T07:59:40.663Z,25.84
2018-05-06T08:02:08.243Z,23.86
2018-05-06T08:04:36.431Z,24.50
2018-05-06T08:07:03.982Z,24.36
2018-05-06T08:09:31.607Z,24.40
2018-05-06T08:11:59.511Z,24.52
2018-05-06T08:14:27.065Z,24.73
2018-05-06T08:16:54.593Z,23.38
2018-05-06T08:19:22.407Z,23.67
2018-05-06T08:21:50.022Z,23.26
2018-05-06T08:24:17.517Z,22.62
2018-05-06T08:26:45.062Z,22.75
2018-05-06T08:29:12.642Z,21.25
2018-05-06T08:31:40.162Z,21.20
2018-05-06T08:34:07.702Z,21.42
2018-05-06T08:36:35.463Z,21.69
2018-05-06T08:39:03.078Z,21.31
2018-05-06T08:41:30.727Z,21.21
2018-05-06T08:43:58.298Z,20.85
2018-05-06T08:46:25.868Z,20.16
2018-05-06T08:48:54.060Z,20.45
2018-05-06T08:51:21.711Z,19.63
2018-05-06T08:53:49.192Z,18.67
2018-05-06T08:56:16.768Z,20.02
2018-05-06T08:58:44.296Z,19.74
2018-05-06T09:01:12.296Z,19.54
2018-05-06T09:03:39.843Z,18.20
2018-05-06T09:06:07.784Z,18.86
2018-05-06T09:08:35.342Z,19.85
2018-05-06T09:11:03.185Z,19.10
2018-05-06T09:13:30.729Z,18.66
2018-05-06T09:15:58.314Z,18.40
2018-05-06T09:18:26.019Z,18.64
2018-05-06T09:20:53.703Z,18.09
2018-05-06T09:23:21.415Z,17.81
2018-05-06T09:25:49.148Z,17.34
2018-05-06T09:28:17.149Z,16.37
2018-05-06T09:30:44.761Z,15.92
2018-05-06T09:33:12.364Z,16.75
2018-05-06T09:35:39.889Z,18.49
2018-05-06T09:38:07.894Z,19.30
2018-05-06T09:40:35.467Z,17.99
2018-05-06T09:43:03.193Z,19.21
2018-05-06T09:45:31.003Z,18.77
2018-05-06T09:47:58.519Z,18.66
2018-05-06T09:50:26.055Z,19.05
2018-05-06T09:52:53.609Z,18.35
2018-05-06T09:55:21.129Z,18.13
2018-05-06T09:57:48.730Z,17.68
2018-05-06T10:00:16.440Z,16.96
2018-05-06T10:02:44.001Z,16.84
2018-05-06T10:05:11.816Z,16.37
2018-05-06T10:07:39.355Z,16.38
2018-05-06T10:10:07.119Z,16.85
2018-05-06T10:12:34.722Z,18.39
2018-05-06T10:15:02.274Z,18.38
2018-05-06T10:17:29.887Z,18.83
2018-05-06T10:19:57.477Z,18.28
2018-05-06T10:22:25.422Z,17.69
2018-05-06T10:24:52.958Z,17.50
2018-05-06T10:27:20.627Z,16.94
2018-05-06T10:29:48.176Z,18.36
2018-05-06T10:32:15.775Z,17.90
2018-05-06T10:34:43.378Z,16.76
2018-05-06T10:37:10.932Z,16.37
2018-05-06T10:39:38.704Z,15.97
2018-05-06T10:42:06.280Z,15.33
2018-05-06T10:44:34.310Z,14.48
2018-05-06T10:47:01.989Z,15.39
2018-05-06T10:49:29.695Z,15.30
2018-05-06T10:51:57.320Z,16.02
2018-05-06T10:54:24.949Z,15.86
2018-05-06T10:56:52.525Z,15.80
2018-05-06T10:59:20.232Z,15.05
2018-05-06T11:01:48.219Z,14.57
2018-05-06T11:04:15.889Z,15.01
2018-05-06T11:06:43.462Z,14.00
2018-05-06T11:09:11.964Z,14.33
2018-05-06T11:11:39.626Z,14.23
2018-05-06T11:14:07.319Z,14.23
2018-05-06T11:16:34.940Z,14.39
2018-05-06T11:19:02.559Z,15.25
2018-05-06T11:21:30.188Z,14.24
2018-05-06T11:23:57.885Z,14.95
2018-05-06T11:26:25.786Z,14.40
2018-05-06T11:28:53.470Z,14.58
2018-05-06T11:31:21.280Z,13.67
2018-05-06T11:33:48.885Z,13.12
2018-05-06T11:36:16.389Z,12.72
2018-05-06T11:38:44.113Z,12.77
2018-05-06T11:41:12.045Z,12.71
2018-05-06T11:43:40.038Z,13.80
2018-05-06T11:46:07.743Z,15.13
2018-05-06T11:48:35.482Z,15.01
2018-05-06T11:51:03.245Z,15.22
2018-05-06T11:53:32.015Z,14.64
2018-05-06T11:55:59.542Z,13.80
2018-05-06T11:58:28.044Z,13.73
2018-05-06T12:00:55.939Z,13.96
2018-05-06T12:03:23.707Z,14.08
2018-05-06T12:05:51.654Z,12.66
2018-05-06T12:08:19.263Z,12.52
2018-05-06T12:10:46.940Z,13.36
2018-05-06T12:13:14.729Z,13.85
2018-05-06T12:15:42.344Z,14.43
2018-05-06T12:18:09.899Z,14.47
2018-05-06T12:20:37.503Z,13.43
2018-05-06T12:23:05.119Z,13.68
2018-05-06T12:25:32.684Z,14.13
2018-05-06T12:28:00.298Z,13.70
2018-05-06T12:30:28.168Z,13.48
2018-05-06T12:32:55.717Z,15.06
2018-05-06T12:35:23.987Z,15.12
2018-05-06T12:37:51.626Z,14.40
2018-05-06T12:40:19.349Z,14.74
2018-05-06T12:42:46.913Z,15.20
2018-05-06T12:45:15.099Z,15.38
2018-05-06T12:47:42.619Z,15.21
2018-05-06T12:50:10.303Z,15.75
2018-05-06T12:52:38.060Z,15.68
2018-05-06T12:55:05.595Z,15.08
2018-05-06T12:57:33.279Z,15.39
2018-05-06T13:00:01.028Z,15.43
2018-05-06T13:02:28.833Z,13.89
2018-05-06T13:04:56.367Z,13.68
2018-05-06T13:07:23.984Z,13.81
2018-05-06T13:09:52.528Z,14.97
2018-05-06T13:12:20.170Z,15.08
2018-05-06T13:14:47.883Z,16.10
2018-05-06T13:17:15.440Z,17.40
2018-05-06T13:19:43.013Z,16.29
2018-05-06T13:22:10.824Z,16.48
2018-05-06T13:24:38.980Z,17.28
2018-05-06T13:27:06.539Z,17.95
2018-05-06T13:29:34.252Z,17.82
2018-05-06T13:32:01.794Z,17.16
2018-05-06T13:34:29.415Z,18.46
2018-05-06T13:36:57.215Z,18.20
2018-05-06T13:39:24.739Z,19.08
2018-05-06T13:41:52.611Z,18.85
2018-05-06T13:44:20.174Z,19.58
2018-05-06T13:46:47.749Z,21.81
2018-05-06T13:49:15.306Z,22.80
2018-05-06T13:51:42.875Z,23.22
2018-05-06T13:54:10.659Z,23.90
2018-05-06T13:56:38.514Z,24.53
2018-05-06T13:59:06.066Z,24.47
2018-05-06T14:01:33.780Z,24.29
2018-05-06T14:04:01.281Z,23.45
2018-05-06T14:06:28.890Z,23.44
2018-05-06T14:08:56.721Z,23.07
2018-05-06T14:11:24.818Z,23.77
2018-05-06T14:13:52.488Z,24.74
2018-05-06T14:16:20.099Z,24.69
2018-05-06T14:18:47.843Z,26.38
2018-05-06T14:21:15.489Z,25.89
2018-05-06T14:23:43.263Z,26.12
2018-05-06T14:26:11.069Z,27.04
2018-05-06T14:28:38.634Z,26.30
2018-05-06T14:31:06.195Z,26.03
2018-05-06T14:33:34.283Z,27.21
2018-05-06T14:36:02.004Z,27.60
2018-05-06T14:38:29.706Z,26.62
2018-05-06T14:40:57.354Z,27.04
2018-05-06T14:43:25.254Z,26.67
2018-05-06T14:45:52.796Z,26.91
2018-05-06T14:48:20.621Z,26.12
2018-05-06T14:51:18.960Z,26.75
2018-05-06T14:53:46.490Z,28.24
2018-05-06T14:56:22.661Z,28.09
2018-05-06T14:58:50.278Z,28.04
2018-05-06T15:01:18.679Z,28.46
2018-05-06T15:03:46.403Z,28.58
2018-05-06T15:06:14.121Z,29.65
2018-05-06T15:08:41.705Z,28.49
2018-05-06T15:11:09.400Z,29.33
2018-05-06T15:13:36.910Z,29.10
2018-05-06T15:16:04.665Z,29.05
2018-05-06T15:18:32.332Z,29.49
2018-05-06T15:20:59.896Z,29.59
2018-05-06T15:23:27.505Z,29.65
2018-05-06T15:25:55.434Z,28.24
2018-05-06T15:28:23.010Z,28.62
2018-05-06T15:30:50.561Z,28.25
2018-05-06T15:33:18.270Z,28.73
2018-05-06T15:35:45.984Z,28.37
2018-05-06T15:38:13.533Z,27.64
2018-05-06T15:40:41.174Z,26.94
2018-05-06T15:43:08.725Z,27.00
2018-05-06T15:45:36.366Z,27.27
2018-05-06T15:48:04.055Z,27.51
2018-05-06T15:50:31.618Z,26.54
2018-05-06T15:52:59.137Z,27.17
2018-05-06T15:55:26.669Z,26.72
2018-05-06T15:57:54.405Z,26.44
2018-05-06T16:00:22.181Z,26.71
2018-05-06T16:03:01.445Z,26.31
2018-05-06T16:05:29.096Z,26.52
2018-05-06T16:07:56.843Z,27.55
2018-05-06T16:10:24.441Z,26.67
2018-05-06T16:12:51.992Z,26.27
2018-05-06T16:15:19.760Z,26.59
2018-05-06T16:17:47.562Z,27.40
2018-05-06T16:20:15.129Z,27.41
2018-05-06T16:22:42.749Z,26.79
2018-05-06T16:25:10.325Z,27.06
2018-05-06T16:27:37.963Z,26.94
2018-05-06T16:30:05.675Z,27.60
2018-05-06T16:32:33.365Z,27.34
2018-05-06T16:35:01.091Z,27.71
2018-05-06T16:37:28.625Z,26.71
2018-05-06T16:39:56.232Z,27.44
2018-05-06T16:42:23.752Z,27.11
2018-05-06T16:44:51.302Z,27.05
2018-05-06T16:47:18.950Z,27.31
2018-05-06T16:49:46.566Z,27.58
2018-05-06T16:52:14.164Z,27.31
2018-05-06T16:54:42.026Z,27.62
2018-05-06T16:57:09.571Z,27.48
2018-05-06T16:59:37.982Z,32.30
2018-05-06T17:02:05.657Z,29.75
2018-05-06T17:04:33.266Z,28.79
2018-05-06T17:07:00.908Z,28.88
2018-05-06T17:09:28.555Z,29.55
2018-05-06T17:11:56.246Z,28.09
2018-05-06T17:14:23.920Z,27.41
2018-05-06T17:16:51.515Z,28.00
2018-05-06T17:19:19.126Z,27.99
2018-05-06T17:21:48.212Z,27.71
2018-05-06T17:24:15.871Z,28.11
2018-05-06T17:26:43.471Z,28.67
2018-05-06T17:29:11.447Z,27.82
2018-05-06T17:31:39.179Z,27.93
2018-05-06T17:34:07.482Z,28.20
2018-05-06T17:36:35.191Z,28.75
2018-05-06T17:39:02.922Z,28.71
2018-05-06T17:41:30.747Z,29.42
2018-05-06T17:43:58.472Z,29.71
2018-05-06T17:46:26.158Z,28.88
2018-05-06T17:48:53.965Z,28.85
2018-05-06T17:51:21.922Z,28.29
2018-05-06T17:53:49.509Z,29.42
2018-05-06T17:56:17.298Z,27.98
2018-05-06T17:58:45.307Z,28.28
2018-05-06T18:01:12.996Z,28.64
2018-05-06T18:03:40.750Z,28.94
2018-05-06T18:06:08.876Z,28.53
2018-05-06T18:08:36.526Z,28.94
2018-05-06T18:11:04.365Z,27.80
2018-05-06T18:13:32.124Z,28.46
2018-05-06T18:15:59.927Z,28.35
2018-05-06T18:18:27.737Z,28.93
2018-05-06T18:20:55.501Z,28.98
2018-05-06T18:23:23.052Z,29.61
2018-05-06T18:25:50.848Z,29.63
2018-05-06T18:28:18.402Z,30.25
2018-05-06T18:30:46.472Z,30.53
2018-05-06T18:33:13.827Z,30.59
2018-05-06T18:35:40.983Z,30.87
2018-05-06T18:38:08.345Z,30.86
2018-05-06T18:40:35.935Z,31.18
2018-05-06T18:43:03.656Z,30.80
2018-05-06T18:45:31.408Z,32.00
2018-05-06T18:47:59.111Z,31.51
2018-05-06T18:50:27.027Z,31.14
2018-05-06T18:52:55.176Z,31.77
2018-05-06T18:55:22.815Z,31.47
2018-05-06T18:57:50.863Z,33.20
2018-05-06T19:00:18.513Z,32.84
2018-05-06T19:02:46.507Z,35.55
2018-05-06T19:05:14.097Z,36.79
2018-05-06T19:07:41.916Z,36.08
2018-05-06T19:10:09.628Z,37.08
2018-05-06T19:12:37.488Z,36.52
2018-05-06T19:15:05.297Z,38.49
2018-05-06T19:17:32.867Z,39.27
2018-05-06T19:20:00.694Z,39.08
2018-05-06T19:22:28.582Z,38.81
2018-05-06T19:24:56.430Z,39.31
2018-05-06T19:27:24.104Z,39.09
2018-05-06T19:29:51.496Z,39.06
2018-05-06T19:32:18.577Z,40.55
2018-05-06T19:34:45.766Z,41.19
2018-05-06T19:37:13.090Z,42.78
2018-05-06T19:39:40.312Z,44.12
2018-05-06T19:42:29.995Z,42.38
2018-05-06T19:44:57.423Z,43.06
2018-05-06T19:47:24.540Z,43.90
2018-05-06T19:49:52.166Z,46.12
2018-05-06T19:52:19.740Z,46.16
2018-05-06T19:54:47.492Z,44.87
2018-05-06T19:57:15.176Z,48.33
2018-05-06T19:59:42.889Z,46.43
2018-05-06T20:02:10.542Z,47.27
2018-05-06T20:04:38.095Z,45.94
2018-05-06T20:07:05.677Z,47.02
2018-05-06T20:09:34.216Z,48.03
2018-05-06T20:12:01.883Z,48.61
2018-05-06T20:14:29.610Z,49.92
2018-05-06T20:16:57.155Z,49.75
2018-05-06T20:19:24.707Z,50.51
2018-05-06T20:21:52.456Z,51.77
2018-05-06T20:24:20.062Z,51.79
2018-05-06T20:26:47.263Z,51.09
2018-05-06T20:29:14.725Z,51.25
2018-05-06T20:31:41.883Z,52.65
2018-05-06T20:34:09.248Z,52.86
2018-05-06T20:36:36.812Z,54.67
2018-05-06T20:39:03.946Z,54.75
2018-05-06T20:41:31.246Z,54.99
2018-05-06T20:43:58.328Z,55.31
2018-05-06T20:46:25.472Z,55.49
2018-05-06T20:48:52.666Z,56.50
2018-05-06T20:51:19.967Z,56.01
2018-05-06T20:53:47.077Z,55.88
2018-05-06T20:56:14.189Z,56.11
2018-05-06T20:58:41.302Z,56.16
2018-05-06T21:01:08.567Z,56.65
2018-05-06T21:03:36.013Z,58.80
2018-05-06T21:06:03.190Z,59.21
2018-05-06T21:08:30.577Z,59.47
2018-05-06T21:10:59.133Z,59.39
2018-05-06T21:13:26.242Z,59.32
2018-05-06T21:15:53.405Z,59.86
2018-05-06T21:18:20.558Z,60.86
2018-05-06T21:20:47.700Z,60.13
2018-05-06T21:23:14.863Z,60.22
2018-05-06T21:25:41.943Z,60.49
2018-05-06T21:28:09.063Z,61.60
2018-05-06T21:30:36.239Z,61.44
2018-05-06T21:33:03.396Z,61.83
2018-05-06T21:35:30.485Z,62.48
2018-05-06T21:37:57.548Z,62.68
2018-05-06T21:40:24.626Z,63.57
2018-05-06T21:42:51.698Z,64.02
2018-05-06T21:45:19.143Z,64.02
2018-05-06T21:47:46.192Z,64.47
2018-05-06T21:50:13.535Z,65.11
2018-05-06T21:52:40.611Z,64.91
2018-05-06T21:55:07.701Z,65.03
2018-05-06T21:57:34.786Z,65.05
2018-05-06T22:00:01.853Z,65.63
2018-05-06T22:02:28.922Z,67.62
2018-05-06T22:04:56.003Z,68.00
2018-05-06T22:07:23.204Z,67.25
2018-05-06T22:09:50.307Z,68.56
2018-05-06T22:12:17.380Z,68.97
2018-05-06T22:14:44.477Z,67.84
2018-05-06T22:17:11.567Z,67.95
2018-05-06T22:19:38.676Z,68.18
2018-05-06T22:22:05.727Z,68.27
2018-05-06T22:24:32.813Z,68.34
2018-05-06T22:26:59.886Z,68.61
2018-05-06T22:29:26.991Z,68.86
2018-05-06T22:31:54.116Z,69.43
2018-05-06T22:34:21.204Z,69.60
2018-05-06T22:36:48.272Z,70.01
2018-05-06T22:39:15.492Z,70.69
2018-05-06T22:41:42.747Z,71.20
2018-05-06T22:44:09.737Z,71.19
2018-05-06T22:46:37.602Z,71.13
2018-05-06T22:49:04.996Z,72.04
2018-05-06T22:51:32.131Z,72.19
2018-05-06T22:53:59.197Z,72.29
2018-05-06T22:56:26.273Z,72.23
2018-05-06T22:58:53.417Z,71.88
2018-05-06T23:01:20.512Z,72.44
2018-05-06T23:03:47.586Z,72.74
2018-05-06T23:06:15.170Z,73.18
2018-05-06T23:08:42.225Z,72.81
2018-05-06T23:11:09.405Z,73.06
2018-05-06T23:13:36.463Z,74.24
2018-05-06T23:16:03.563Z,74.25
2018-05-06T23:18:30.627Z,74.26
2018-05-06T23:20:57.763Z,74.12
2018-05-06T23:23:24.862Z,74.72
2018-05-06T23:25:52.047Z,74.73
2018-05-06T23:28:19.095Z,75.39
2018-05-06T23:30:46.211Z,75.39
2018-05-06T23:33:13.366Z,74.68
2018-05-06T23:35:40.451Z,75.61
2018-05-06T23:38:07.592Z,75.40
2018-05-06T23:40:34.937Z,76.06
2018-05-06T23:43:02.270Z,76.55
2018-05-06T23:45:29.416Z,76.33
2018-05-06T23:47:56.497Z,76.24
2018-05-06T23:50:23.716Z,76.35
2018-05-06T23:52:50.808Z,76.73
2018-05-06T23:55:18.043Z,77.00
2018-05-06T23:57:45.151Z,77.32
